VOL101F EGPC-BIKF
Flight info
| Callsign | VOL101F |
|---|---|
| Flight time | 2h 49m |
| Altitude | 16000 |
| Route | WIK DCT SOXON DCT MATIK/M044F160 DCT 62N011W DCT ING DCT NASBU NASBU2H |
| Aircraft | AT76/M-SDFGIRY/S |
Departure
| Time | 2026-05-09 09:42 |
|---|---|
| Airport | Wick John O'Groats Airport (EGPC) |
Arrival
| Time | 2026-05-09 12:32 |
|---|---|
| Airport | Keflavik International Airport (BIKF) |
| Time | Latitude | Longitude | Altitude | Speed | Heading |
|---|---|---|---|---|---|
| 2026-05-09 09:36 | 58.45411 | -3.08790 | 120 ft | 0 kts | 294° |
| 2026-05-09 09:40 | 58.45412 | -3.08795 | 120 ft | 1 kts | 286° |
| 2026-05-09 09:40 | 58.45407 | -3.08811 | 117 ft | 1 kts | 221° |
| 2026-05-09 09:40 | 58.45396 | -3.08796 | 117 ft | 3 kts | 118° |
| 2026-05-09 09:40 | 58.45419 | -3.08766 | 117 ft | 6 kts | 6° |
| 2026-05-09 09:41 | 58.45461 | -3.08784 | 118 ft | 7 kts | 349° |
| 2026-05-09 09:41 | 58.45505 | -3.08745 | 120 ft | 9 kts | 40° |
| 2026-05-09 09:41 | 58.45550 | -3.08652 | 120 ft | 11 kts | 56° |
| 2026-05-09 09:41 | 58.45601 | -3.08624 | 121 ft | 7 kts | 317° |
| 2026-05-09 09:42 | 58.45716 | -3.08889 | 120 ft | 60 kts | 305° |
| 2026-05-09 09:42 | 58.46082 | -3.09844 | 126 ft | 113 kts | 306° |
| 2026-05-09 09:42 | 58.46534 | -3.11060 | 664 ft | 105 kts | 303° |
| 2026-05-09 09:42 | 58.46984 | -3.12233 | 1104 ft | 118 kts | 316° |
| 2026-05-09 09:43 | 58.47649 | -3.13142 | 1789 ft | 119 kts | 324° |
| 2026-05-09 09:43 | 58.48341 | -3.14166 | 2250 ft | 139 kts | 321° |
| 2026-05-09 09:43 | 58.49098 | -3.15466 | 2493 ft | 155 kts | 318° |
| 2026-05-09 09:43 | 58.49939 | -3.16803 | 2964 ft | 157 kts | 322° |
| 2026-05-09 09:44 | 58.50818 | -3.18062 | 3457 ft | 159 kts | 323° |
| 2026-05-09 09:44 | 58.51712 | -3.19320 | 3941 ft | 161 kts | 323° |
| 2026-05-09 09:44 | 58.52609 | -3.20592 | 4389 ft | 161 kts | 322° |
| 2026-05-09 09:44 | 58.53507 | -3.21880 | 4859 ft | 162 kts | 322° |
| 2026-05-09 09:45 | 58.54394 | -3.23178 | 5312 ft | 163 kts | 321° |
| 2026-05-09 09:45 | 58.55293 | -3.24510 | 5760 ft | 164 kts | 321° |
| 2026-05-09 09:45 | 58.56202 | -3.25852 | 6199 ft | 166 kts | 321° |
| 2026-05-09 09:45 | 58.57117 | -3.27205 | 6626 ft | 167 kts | 320° |
| 2026-05-09 09:46 | 58.58036 | -3.28581 | 7063 ft | 168 kts | 320° |
| 2026-05-09 09:46 | 58.58963 | -3.29970 | 7490 ft | 170 kts | 320° |
| 2026-05-09 09:46 | 58.59896 | -3.31375 | 7889 ft | 172 kts | 319° |
| 2026-05-09 09:46 | 58.60838 | -3.32798 | 8305 ft | 173 kts | 319° |
| 2026-05-09 09:47 | 58.61788 | -3.34227 | 8712 ft | 175 kts | 319° |
| 2026-05-09 09:47 | 58.62739 | -3.35654 | 9111 ft | 177 kts | 319° |
| 2026-05-09 09:47 | 58.63712 | -3.37116 | 9512 ft | 179 kts | 318° |
| 2026-05-09 09:47 | 58.64697 | -3.38595 | 9900 ft | 180 kts | 318° |
| 2026-05-09 09:48 | 58.65691 | -3.40082 | 10284 ft | 182 kts | 318° |
| 2026-05-09 09:48 | 58.66696 | -3.41580 | 10643 ft | 183 kts | 318° |
| 2026-05-09 09:48 | 58.67705 | -3.43096 | 10996 ft | 185 kts | 317° |
| 2026-05-09 09:48 | 58.68716 | -3.44627 | 11337 ft | 186 kts | 317° |
| 2026-05-09 09:49 | 58.69736 | -3.46171 | 11683 ft | 187 kts | 317° |
| 2026-05-09 09:49 | 58.70743 | -3.47708 | 12023 ft | 188 kts | 317° |
| 2026-05-09 09:49 | 58.71775 | -3.49272 | 12354 ft | 189 kts | 317° |
| 2026-05-09 09:49 | 58.72815 | -3.50844 | 12699 ft | 191 kts | 317° |
| 2026-05-09 09:50 | 58.73861 | -3.52423 | 13028 ft | 192 kts | 317° |
| 2026-05-09 09:50 | 58.74916 | -3.54014 | 13356 ft | 193 kts | 317° |
| 2026-05-09 09:50 | 58.75976 | -3.55615 | 13689 ft | 194 kts | 317° |
| 2026-05-09 09:50 | 58.77042 | -3.57228 | 14014 ft | 195 kts | 316° |
| 2026-05-09 09:51 | 58.78114 | -3.58852 | 14305 ft | 197 kts | 316° |
| 2026-05-09 09:51 | 58.79194 | -3.60487 | 14589 ft | 197 kts | 316° |
| 2026-05-09 09:51 | 58.80277 | -3.62128 | 14872 ft | 198 kts | 316° |
| 2026-05-09 09:51 | 58.81349 | -3.63754 | 15141 ft | 199 kts | 316° |
| 2026-05-09 09:52 | 58.82442 | -3.65411 | 15425 ft | 200 kts | 316° |
| 2026-05-09 09:52 | 58.83539 | -3.67077 | 15694 ft | 201 kts | 316° |
| 2026-05-09 09:52 | 58.84642 | -3.68751 | 15961 ft | 202 kts | 316° |
| 2026-05-09 09:52 | 58.85751 | -3.70436 | 16169 ft | 206 kts | 316° |
| 2026-05-09 09:53 | 58.86902 | -3.72185 | 16247 ft | 215 kts | 317° |
| 2026-05-09 09:53 | 58.88100 | -3.74009 | 16282 ft | 224 kts | 317° |
| 2026-05-09 09:53 | 58.89345 | -3.75911 | 16301 ft | 232 kts | 317° |
| 2026-05-09 09:53 | 58.90633 | -3.77877 | 16311 ft | 239 kts | 317° |
| 2026-05-09 09:54 | 58.91939 | -3.79871 | 16311 ft | 245 kts | 317° |
| 2026-05-09 09:54 | 58.93286 | -3.81933 | 16312 ft | 249 kts | 317° |
| 2026-05-09 09:54 | 58.94655 | -3.84023 | 16314 ft | 252 kts | 317° |
| 2026-05-09 09:54 | 58.96036 | -3.86147 | 16316 ft | 255 kts | 318° |
| 2026-05-09 09:55 | 58.97415 | -3.88313 | 16311 ft | 256 kts | 315° |
| 2026-05-09 09:55 | 58.98716 | -3.90652 | 16310 ft | 255 kts | 311° |
| 2026-05-09 09:55 | 58.99967 | -3.93088 | 16310 ft | 255 kts | 311° |
| 2026-05-09 09:55 | 59.01218 | -3.95549 | 16310 ft | 256 kts | 311° |
| 2026-05-09 09:56 | 59.02460 | -3.97961 | 16310 ft | 257 kts | 312° |
| 2026-05-09 09:56 | 59.03736 | -4.00387 | 16308 ft | 257 kts | 312° |
| 2026-05-09 09:56 | 59.05016 | -4.02813 | 16306 ft | 257 kts | 312° |
| 2026-05-09 09:56 | 59.06296 | -4.05241 | 16311 ft | 257 kts | 312° |
| 2026-05-09 09:57 | 59.07577 | -4.07673 | 16307 ft | 257 kts | 312° |
| 2026-05-09 09:57 | 59.08858 | -4.10108 | 16308 ft | 257 kts | 312° |
| 2026-05-09 09:57 | 59.10137 | -4.12537 | 16308 ft | 257 kts | 312° |
| 2026-05-09 09:57 | 59.11402 | -4.14942 | 16310 ft | 257 kts | 312° |
| 2026-05-09 09:58 | 59.12683 | -4.17373 | 16309 ft | 258 kts | 312° |
| 2026-05-09 09:58 | 59.13962 | -4.19820 | 16308 ft | 258 kts | 312° |
| 2026-05-09 09:58 | 59.15239 | -4.22265 | 16310 ft | 258 kts | 312° |
| 2026-05-09 09:58 | 59.16515 | -4.24707 | 16304 ft | 257 kts | 313° |
| 2026-05-09 09:59 | 59.17794 | -4.27154 | 16303 ft | 257 kts | 312° |
| 2026-05-09 09:59 | 59.19070 | -4.29601 | 16307 ft | 257 kts | 312° |
| 2026-05-09 09:59 | 59.20350 | -4.32050 | 16312 ft | 257 kts | 312° |
| 2026-05-09 09:59 | 59.21625 | -4.34495 | 16313 ft | 257 kts | 312° |
| 2026-05-09 10:00 | 59.22902 | -4.36948 | 16308 ft | 257 kts | 313° |
| 2026-05-09 10:00 | 59.24156 | -4.39369 | 16310 ft | 257 kts | 313° |
| 2026-05-09 10:00 | 59.25432 | -4.41823 | 16311 ft | 257 kts | 312° |
| 2026-05-09 10:00 | 59.26705 | -4.44273 | 16307 ft | 257 kts | 312° |
| 2026-05-09 10:01 | 59.27980 | -4.46735 | 16313 ft | 258 kts | 313° |
| 2026-05-09 10:01 | 59.29252 | -4.49195 | 16305 ft | 257 kts | 313° |
| 2026-05-09 10:01 | 59.30523 | -4.51659 | 16310 ft | 257 kts | 312° |
| 2026-05-09 10:01 | 59.31796 | -4.54120 | 16311 ft | 257 kts | 312° |
| 2026-05-09 10:02 | 59.33065 | -4.56585 | 16310 ft | 257 kts | 313° |
| 2026-05-09 10:02 | 59.34319 | -4.59016 | 16306 ft | 257 kts | 312° |
| 2026-05-09 10:02 | 59.35586 | -4.61481 | 16302 ft | 257 kts | 312° |
| 2026-05-09 10:02 | 59.36852 | -4.63946 | 16305 ft | 256 kts | 312° |
| 2026-05-09 10:03 | 59.38104 | -4.66431 | 16304 ft | 256 kts | 311° |
| 2026-05-09 10:03 | 59.39356 | -4.68904 | 16308 ft | 256 kts | 312° |
| 2026-05-09 10:03 | 59.40622 | -4.71354 | 16304 ft | 256 kts | 313° |
| 2026-05-09 10:03 | 59.41894 | -4.73805 | 16312 ft | 256 kts | 313° |
| 2026-05-09 10:04 | 59.43156 | -4.76262 | 16304 ft | 256 kts | 312° |
| 2026-05-09 10:04 | 59.44419 | -4.78730 | 16308 ft | 256 kts | 312° |
| 2026-05-09 10:04 | 59.45678 | -4.81199 | 16305 ft | 256 kts | 312° |
| 2026-05-09 10:04 | 59.46919 | -4.83633 | 16310 ft | 256 kts | 312° |
| 2026-05-09 10:05 | 59.48177 | -4.86108 | 16304 ft | 256 kts | 312° |
| 2026-05-09 10:05 | 59.49433 | -4.88580 | 16303 ft | 256 kts | 312° |
| 2026-05-09 10:05 | 59.50692 | -4.91058 | 16305 ft | 256 kts | 312° |
| 2026-05-09 10:05 | 59.51948 | -4.93537 | 16309 ft | 256 kts | 312° |
| 2026-05-09 10:06 | 59.53202 | -4.96015 | 16306 ft | 256 kts | 312° |
| 2026-05-09 10:06 | 59.54458 | -4.98498 | 16308 ft | 256 kts | 312° |
| 2026-05-09 10:06 | 59.55712 | -5.00976 | 16306 ft | 256 kts | 312° |
| 2026-05-09 10:06 | 59.56964 | -5.03463 | 16307 ft | 255 kts | 312° |
| 2026-05-09 10:07 | 59.58216 | -5.05948 | 16308 ft | 255 kts | 312° |
| 2026-05-09 10:07 | 59.59467 | -5.08429 | 16308 ft | 255 kts | 312° |
| 2026-05-09 10:07 | 59.60702 | -5.10884 | 16308 ft | 255 kts | 312° |
| 2026-05-09 10:07 | 59.61954 | -5.13378 | 16309 ft | 255 kts | 312° |
| 2026-05-09 10:08 | 59.63202 | -5.15869 | 16307 ft | 255 kts | 311° |
| 2026-05-09 10:08 | 59.64455 | -5.18363 | 16306 ft | 255 kts | 311° |
| 2026-05-09 10:08 | 59.65705 | -5.20854 | 16305 ft | 255 kts | 312° |
| 2026-05-09 10:08 | 59.66951 | -5.23347 | 16308 ft | 255 kts | 311° |
| 2026-05-09 10:09 | 59.68200 | -5.25853 | 16305 ft | 255 kts | 312° |
| 2026-05-09 10:09 | 59.69448 | -5.28352 | 16307 ft | 255 kts | 312° |
| 2026-05-09 10:09 | 59.70677 | -5.30822 | 16309 ft | 255 kts | 311° |
| 2026-05-09 10:09 | 59.71923 | -5.33319 | 16306 ft | 255 kts | 311° |
| 2026-05-09 10:10 | 59.73167 | -5.35824 | 16308 ft | 255 kts | 311° |
| 2026-05-09 10:10 | 59.74410 | -5.38326 | 16308 ft | 255 kts | 312° |
| 2026-05-09 10:10 | 59.75658 | -5.40832 | 16307 ft | 255 kts | 311° |
| 2026-05-09 10:10 | 59.76902 | -5.43339 | 16309 ft | 255 kts | 311° |
| 2026-05-09 10:11 | 59.78144 | -5.45852 | 16309 ft | 255 kts | 311° |
| 2026-05-09 10:11 | 59.79383 | -5.48361 | 16307 ft | 255 kts | 311° |
| 2026-05-09 10:11 | 59.80610 | -5.50842 | 16307 ft | 255 kts | 311° |
| 2026-05-09 10:11 | 59.81850 | -5.53354 | 16308 ft | 255 kts | 311° |
| 2026-05-09 10:12 | 59.83089 | -5.55868 | 16308 ft | 255 kts | 311° |
| 2026-05-09 10:12 | 59.84329 | -5.58385 | 16307 ft | 255 kts | 311° |
| 2026-05-09 10:12 | 59.85571 | -5.60909 | 16307 ft | 255 kts | 311° |
| 2026-05-09 10:12 | 59.86810 | -5.63431 | 16307 ft | 255 kts | 311° |
| 2026-05-09 10:13 | 59.88046 | -5.65948 | 16308 ft | 255 kts | 311° |
| 2026-05-09 10:13 | 59.89283 | -5.68476 | 16307 ft | 254 kts | 311° |
| 2026-05-09 10:13 | 59.90518 | -5.70997 | 16306 ft | 254 kts | 311° |
| 2026-05-09 10:13 | 59.91737 | -5.73489 | 16312 ft | 255 kts | 311° |
| 2026-05-09 10:14 | 59.92974 | -5.76019 | 16306 ft | 255 kts | 311° |
| 2026-05-09 10:14 | 59.94207 | -5.78549 | 16307 ft | 255 kts | 311° |
| 2026-05-09 10:14 | 59.95440 | -5.81079 | 16309 ft | 254 kts | 311° |
| 2026-05-09 10:14 | 59.96679 | -5.83609 | 16306 ft | 254 kts | 311° |
| 2026-05-09 10:15 | 59.97921 | -5.86126 | 16305 ft | 254 kts | 311° |
| 2026-05-09 10:15 | 59.99163 | -5.88643 | 16305 ft | 254 kts | 311° |
| 2026-05-09 10:15 | 60.00405 | -5.91157 | 16305 ft | 255 kts | 311° |
| 2026-05-09 10:15 | 60.01641 | -5.93684 | 16314 ft | 254 kts | 311° |
| 2026-05-09 10:16 | 60.02860 | -5.96190 | 16305 ft | 254 kts | 311° |
| 2026-05-09 10:16 | 60.04085 | -5.98729 | 16303 ft | 254 kts | 311° |
| 2026-05-09 10:16 | 60.05314 | -6.01276 | 16308 ft | 254 kts | 311° |
| 2026-05-09 10:16 | 60.06546 | -6.03823 | 16308 ft | 254 kts | 311° |
| 2026-05-09 10:17 | 60.07774 | -6.06367 | 16315 ft | 254 kts | 311° |
| 2026-05-09 10:17 | 60.08997 | -6.08923 | 16309 ft | 254 kts | 311° |
| 2026-05-09 10:17 | 60.10218 | -6.11483 | 16300 ft | 254 kts | 311° |
| 2026-05-09 10:17 | 60.11439 | -6.14051 | 16301 ft | 254 kts | 310° |
| 2026-05-09 10:18 | 60.12656 | -6.16611 | 16308 ft | 254 kts | 310° |
| 2026-05-09 10:18 | 60.13861 | -6.19135 | 16308 ft | 254 kts | 311° |
| 2026-05-09 10:18 | 60.15084 | -6.21693 | 16304 ft | 254 kts | 311° |
| 2026-05-09 10:18 | 60.16306 | -6.24243 | 16303 ft | 254 kts | 311° |
| 2026-05-09 10:19 | 60.17529 | -6.26795 | 16300 ft | 254 kts | 311° |
| 2026-05-09 10:19 | 60.18752 | -6.29359 | 16310 ft | 254 kts | 311° |
| 2026-05-09 10:19 | 60.19972 | -6.31924 | 16301 ft | 254 kts | 311° |
| 2026-05-09 10:19 | 60.21192 | -6.34486 | 16310 ft | 254 kts | 311° |
| 2026-05-09 10:20 | 60.22412 | -6.37052 | 16311 ft | 254 kts | 311° |
| 2026-05-09 10:20 | 60.23615 | -6.39585 | 16309 ft | 253 kts | 311° |
| 2026-05-09 10:20 | 60.24834 | -6.42153 | 16308 ft | 253 kts | 311° |
| 2026-05-09 10:20 | 60.26048 | -6.44718 | 16304 ft | 253 kts | 311° |
| 2026-05-09 10:21 | 60.27266 | -6.47288 | 16304 ft | 253 kts | 311° |
| 2026-05-09 10:21 | 60.28482 | -6.49859 | 16304 ft | 253 kts | 311° |
| 2026-05-09 10:21 | 60.29694 | -6.52428 | 16300 ft | 253 kts | 310° |
| 2026-05-09 10:21 | 60.30908 | -6.55001 | 16304 ft | 253 kts | 311° |
| 2026-05-09 10:22 | 60.32120 | -6.57577 | 16302 ft | 253 kts | 310° |
| 2026-05-09 10:22 | 60.33330 | -6.60152 | 16302 ft | 253 kts | 311° |
| 2026-05-09 10:22 | 60.34524 | -6.62691 | 16300 ft | 253 kts | 310° |
| 2026-05-09 10:22 | 60.35733 | -6.65267 | 16303 ft | 253 kts | 310° |
| 2026-05-09 10:23 | 60.36941 | -6.67840 | 16303 ft | 253 kts | 310° |
| 2026-05-09 10:23 | 60.38149 | -6.70424 | 16304 ft | 252 kts | 310° |
| 2026-05-09 10:23 | 60.39352 | -6.73003 | 16298 ft | 252 kts | 310° |
| 2026-05-09 10:23 | 60.40557 | -6.75581 | 16307 ft | 252 kts | 310° |
| 2026-05-09 10:24 | 60.41760 | -6.78160 | 16303 ft | 252 kts | 310° |
| 2026-05-09 10:24 | 60.42949 | -6.80709 | 16301 ft | 252 kts | 310° |
| 2026-05-09 10:24 | 60.44152 | -6.83291 | 16302 ft | 252 kts | 310° |
| 2026-05-09 10:24 | 60.45352 | -6.85872 | 16302 ft | 252 kts | 310° |
| 2026-05-09 10:25 | 60.46550 | -6.88452 | 16301 ft | 252 kts | 310° |
| 2026-05-09 10:25 | 60.47749 | -6.91038 | 16300 ft | 251 kts | 310° |
| 2026-05-09 10:25 | 60.48947 | -6.93623 | 16300 ft | 251 kts | 310° |
| 2026-05-09 10:25 | 60.50143 | -6.96207 | 16309 ft | 252 kts | 310° |
| 2026-05-09 10:26 | 60.51341 | -6.98797 | 16303 ft | 252 kts | 310° |
| 2026-05-09 10:26 | 60.52527 | -7.01364 | 16300 ft | 252 kts | 310° |
| 2026-05-09 10:26 | 60.53725 | -7.03961 | 16301 ft | 252 kts | 310° |
| 2026-05-09 10:26 | 60.54926 | -7.06570 | 16303 ft | 253 kts | 310° |
| 2026-05-09 10:27 | 60.56128 | -7.09183 | 16294 ft | 253 kts | 310° |
| 2026-05-09 10:27 | 60.57325 | -7.11792 | 16295 ft | 252 kts | 310° |
| 2026-05-09 10:27 | 60.58520 | -7.14393 | 16295 ft | 252 kts | 311° |
| 2026-05-09 10:27 | 60.59714 | -7.16989 | 16303 ft | 251 kts | 310° |
| 2026-05-09 10:28 | 60.60907 | -7.19581 | 16301 ft | 251 kts | 310° |
| 2026-05-09 10:28 | 60.62097 | -7.22175 | 16300 ft | 251 kts | 310° |
| 2026-05-09 10:28 | 60.63267 | -7.24745 | 16298 ft | 250 kts | 310° |
| 2026-05-09 10:28 | 60.64440 | -7.27356 | 16302 ft | 250 kts | 310° |
| 2026-05-09 10:29 | 60.65612 | -7.29970 | 16301 ft | 250 kts | 310° |
| 2026-05-09 10:29 | 60.66787 | -7.32575 | 16302 ft | 250 kts | 310° |
| 2026-05-09 10:29 | 60.67969 | -7.35166 | 16301 ft | 249 kts | 311° |
| 2026-05-09 10:29 | 60.69154 | -7.37760 | 16303 ft | 249 kts | 310° |
| 2026-05-09 10:30 | 60.70331 | -7.40349 | 16301 ft | 249 kts | 310° |
| 2026-05-09 10:30 | 60.71496 | -7.42914 | 16300 ft | 249 kts | 310° |
| 2026-05-09 10:30 | 60.72671 | -7.45515 | 16301 ft | 249 kts | 310° |
| 2026-05-09 10:30 | 60.73842 | -7.48113 | 16306 ft | 249 kts | 310° |
| 2026-05-09 10:31 | 60.75017 | -7.50713 | 16301 ft | 249 kts | 310° |
| 2026-05-09 10:31 | 60.76189 | -7.53307 | 16304 ft | 249 kts | 310° |
| 2026-05-09 10:31 | 60.77357 | -7.55909 | 16303 ft | 248 kts | 310° |
| 2026-05-09 10:31 | 60.78526 | -7.58511 | 16306 ft | 248 kts | 310° |
| 2026-05-09 10:32 | 60.79695 | -7.61105 | 16301 ft | 248 kts | 310° |
| 2026-05-09 10:32 | 60.80867 | -7.63710 | 16300 ft | 248 kts | 310° |
| 2026-05-09 10:32 | 60.82031 | -7.66312 | 16302 ft | 248 kts | 310° |
| 2026-05-09 10:32 | 60.83185 | -7.68881 | 16304 ft | 248 kts | 310° |
| 2026-05-09 10:33 | 60.84349 | -7.71487 | 16301 ft | 248 kts | 310° |
| 2026-05-09 10:33 | 60.85514 | -7.74094 | 16298 ft | 248 kts | 310° |
| 2026-05-09 10:33 | 60.86678 | -7.76704 | 16299 ft | 248 kts | 310° |
| 2026-05-09 10:33 | 60.87841 | -7.79304 | 16304 ft | 248 kts | 310° |
| 2026-05-09 10:34 | 60.89002 | -7.81913 | 16303 ft | 247 kts | 310° |
| 2026-05-09 10:34 | 60.91306 | -7.87094 | 16300 ft | 247 kts | 310° |
| 2026-05-09 10:34 | 60.92465 | -7.89701 | 16305 ft | 247 kts | 310° |
| 2026-05-09 10:35 | 60.93615 | -7.92309 | 16303 ft | 246 kts | 310° |
| 2026-05-09 10:35 | 60.94774 | -7.94910 | 16303 ft | 247 kts | 310° |
| 2026-05-09 10:35 | 60.95928 | -7.97523 | 16301 ft | 246 kts | 310° |
| 2026-05-09 10:35 | 60.97079 | -8.00126 | 16304 ft | 246 kts | 310° |
| 2026-05-09 10:36 | 60.98231 | -8.02731 | 16302 ft | 246 kts | 310° |
| 2026-05-09 10:36 | 60.99379 | -8.05341 | 16303 ft | 246 kts | 310° |
| 2026-05-09 10:36 | 61.00498 | -8.07948 | 16299 ft | 246 kts | 308° |
| 2026-05-09 10:36 | 61.01543 | -8.10720 | 16305 ft | 245 kts | 305° |
| 2026-05-09 10:37 | 61.02543 | -8.13564 | 16302 ft | 245 kts | 304° |
| 2026-05-09 10:37 | 61.03533 | -8.16417 | 16302 ft | 244 kts | 304° |
| 2026-05-09 10:37 | 61.04526 | -8.19258 | 16301 ft | 244 kts | 305° |
| 2026-05-09 10:37 | 61.05541 | -8.22072 | 16304 ft | 244 kts | 305° |
| 2026-05-09 10:38 | 61.06554 | -8.24887 | 16301 ft | 244 kts | 305° |
| 2026-05-09 10:38 | 61.07567 | -8.27702 | 16302 ft | 244 kts | 305° |
| 2026-05-09 10:38 | 61.08580 | -8.30518 | 16303 ft | 244 kts | 306° |
| 2026-05-09 10:38 | 61.09576 | -8.33290 | 16306 ft | 244 kts | 306° |
| 2026-05-09 10:39 | 61.10587 | -8.36109 | 16303 ft | 244 kts | 306° |
| 2026-05-09 10:39 | 61.11596 | -8.38925 | 16301 ft | 244 kts | 305° |
| 2026-05-09 10:39 | 61.12604 | -8.41738 | 16304 ft | 244 kts | 306° |
| 2026-05-09 10:39 | 61.13610 | -8.44562 | 16305 ft | 243 kts | 306° |
| 2026-05-09 10:40 | 61.14617 | -8.47377 | 16301 ft | 243 kts | 305° |
| 2026-05-09 10:40 | 61.15619 | -8.50198 | 16302 ft | 243 kts | 305° |
| 2026-05-09 10:40 | 61.16612 | -8.52982 | 16304 ft | 243 kts | 306° |
| 2026-05-09 10:40 | 61.17614 | -8.55797 | 16305 ft | 243 kts | 306° |
| 2026-05-09 10:41 | 61.18618 | -8.58620 | 16301 ft | 243 kts | 306° |
| 2026-05-09 10:41 | 61.19620 | -8.61437 | 16304 ft | 243 kts | 306° |
| 2026-05-09 10:41 | 61.20614 | -8.64257 | 16310 ft | 242 kts | 306° |
| 2026-05-09 10:41 | 61.21611 | -8.67074 | 16301 ft | 242 kts | 306° |
| 2026-05-09 10:42 | 61.22610 | -8.69899 | 16301 ft | 242 kts | 305° |
| 2026-05-09 10:42 | 61.23606 | -8.72724 | 16303 ft | 243 kts | 306° |
| 2026-05-09 10:42 | 61.24589 | -8.75513 | 16297 ft | 242 kts | 306° |
| 2026-05-09 10:42 | 61.25582 | -8.78334 | 16303 ft | 242 kts | 306° |
| 2026-05-09 10:43 | 61.26576 | -8.81161 | 16309 ft | 242 kts | 306° |
| 2026-05-09 10:43 | 61.27567 | -8.83983 | 16305 ft | 242 kts | 305° |
| 2026-05-09 10:43 | 61.28558 | -8.86806 | 16307 ft | 242 kts | 305° |
| 2026-05-09 10:43 | 61.29549 | -8.89635 | 16309 ft | 242 kts | 306° |
| 2026-05-09 10:44 | 61.30536 | -8.92460 | 16307 ft | 241 kts | 306° |
| 2026-05-09 10:44 | 61.31523 | -8.95280 | 16306 ft | 241 kts | 306° |
| 2026-05-09 10:44 | 61.32510 | -8.98109 | 16305 ft | 241 kts | 305° |
| 2026-05-09 10:44 | 61.33483 | -9.00897 | 16309 ft | 241 kts | 306° |
| 2026-05-09 10:45 | 61.34465 | -9.03719 | 16306 ft | 241 kts | 306° |
| 2026-05-09 10:46 | 61.38389 | -9.15019 | 16308 ft | 241 kts | 306° |
| 2026-05-09 10:46 | 61.39369 | -9.17852 | 16308 ft | 240 kts | 306° |
| 2026-05-09 10:46 | 61.40334 | -9.20638 | 16304 ft | 240 kts | 306° |
| 2026-05-09 10:46 | 61.41313 | -9.23465 | 16309 ft | 240 kts | 306° |
| 2026-05-09 10:47 | 61.42286 | -9.26291 | 16311 ft | 240 kts | 306° |
| 2026-05-09 10:47 | 61.43259 | -9.29122 | 16310 ft | 240 kts | 306° |
| 2026-05-09 10:47 | 61.44234 | -9.31944 | 16311 ft | 239 kts | 306° |
| 2026-05-09 10:47 | 61.45206 | -9.34773 | 16311 ft | 240 kts | 306° |
| 2026-05-09 10:48 | 61.46175 | -9.37604 | 16309 ft | 239 kts | 306° |
| 2026-05-09 10:48 | 61.47146 | -9.40432 | 16312 ft | 239 kts | 306° |
| 2026-05-09 10:48 | 61.48104 | -9.43227 | 16312 ft | 239 kts | 306° |
| 2026-05-09 10:48 | 61.49069 | -9.46056 | 16314 ft | 239 kts | 306° |
| 2026-05-09 10:49 | 61.50039 | -9.48893 | 16311 ft | 239 kts | 306° |
| 2026-05-09 10:49 | 61.51005 | -9.51727 | 16310 ft | 240 kts | 306° |
| 2026-05-09 10:49 | 61.51973 | -9.54567 | 16313 ft | 239 kts | 306° |
| 2026-05-09 10:49 | 61.52940 | -9.57405 | 16306 ft | 240 kts | 306° |
| 2026-05-09 10:50 | 61.53907 | -9.60258 | 16305 ft | 240 kts | 306° |
| 2026-05-09 10:50 | 61.54861 | -9.63068 | 16310 ft | 240 kts | 306° |
| 2026-05-09 10:50 | 61.55825 | -9.65913 | 16307 ft | 239 kts | 306° |
| 2026-05-09 10:50 | 61.56787 | -9.68760 | 16309 ft | 239 kts | 306° |
| 2026-05-09 10:51 | 61.57750 | -9.71609 | 16312 ft | 239 kts | 306° |
| 2026-05-09 10:51 | 61.58712 | -9.74455 | 16315 ft | 239 kts | 306° |
| 2026-05-09 10:51 | 61.59675 | -9.77306 | 16318 ft | 239 kts | 306° |
| 2026-05-09 10:51 | 61.60635 | -9.80158 | 16314 ft | 239 kts | 306° |
| 2026-05-09 10:52 | 61.61596 | -9.83014 | 16312 ft | 239 kts | 306° |
| 2026-05-09 10:52 | 61.62557 | -9.85870 | 16315 ft | 239 kts | 306° |
| 2026-05-09 10:52 | 61.63502 | -9.88688 | 16316 ft | 239 kts | 306° |
| 2026-05-09 10:52 | 61.64461 | -9.91546 | 16311 ft | 239 kts | 306° |
| 2026-05-09 10:53 | 61.65421 | -9.94412 | 16318 ft | 239 kts | 306° |
| 2026-05-09 10:53 | 61.66378 | -9.97269 | 16311 ft | 239 kts | 306° |
| 2026-05-09 10:53 | 61.67338 | -10.00138 | 16304 ft | 239 kts | 306° |
| 2026-05-09 10:53 | 61.68292 | -10.02996 | 16317 ft | 239 kts | 307° |
| 2026-05-09 10:54 | 61.69246 | -10.05864 | 16313 ft | 239 kts | 307° |
| 2026-05-09 10:54 | 61.70204 | -10.08721 | 16308 ft | 239 kts | 307° |
| 2026-05-09 10:54 | 61.71143 | -10.11550 | 16306 ft | 238 kts | 307° |
| 2026-05-09 10:54 | 61.72090 | -10.14416 | 16318 ft | 238 kts | 307° |
| 2026-05-09 10:55 | 61.73041 | -10.17281 | 16312 ft | 238 kts | 307° |
| 2026-05-09 10:55 | 61.73989 | -10.20154 | 16306 ft | 238 kts | 307° |
| 2026-05-09 10:55 | 61.74936 | -10.23016 | 16310 ft | 238 kts | 307° |
| 2026-05-09 10:55 | 61.75885 | -10.25877 | 16313 ft | 238 kts | 307° |
| 2026-05-09 10:56 | 61.76831 | -10.28746 | 16316 ft | 238 kts | 307° |
| 2026-05-09 10:56 | 61.77778 | -10.31613 | 16311 ft | 238 kts | 307° |
| 2026-05-09 10:56 | 61.78707 | -10.34442 | 16312 ft | 238 kts | 307° |
| 2026-05-09 10:56 | 61.79646 | -10.37310 | 16311 ft | 237 kts | 307° |
| 2026-05-09 10:57 | 61.80589 | -10.40176 | 16313 ft | 237 kts | 307° |
| 2026-05-09 10:57 | 61.81531 | -10.43040 | 16309 ft | 237 kts | 307° |
| 2026-05-09 10:57 | 61.82475 | -10.45897 | 16312 ft | 237 kts | 307° |
| 2026-05-09 10:57 | 61.83416 | -10.48769 | 16309 ft | 237 kts | 307° |
| 2026-05-09 10:58 | 61.84352 | -10.51652 | 16312 ft | 238 kts | 307° |
| 2026-05-09 10:58 | 61.85282 | -10.54537 | 16310 ft | 237 kts | 307° |
| 2026-05-09 10:58 | 61.86219 | -10.57421 | 16309 ft | 238 kts | 306° |
| 2026-05-09 10:58 | 61.87147 | -10.60267 | 16310 ft | 238 kts | 307° |
| 2026-05-09 10:59 | 61.88093 | -10.63142 | 16308 ft | 238 kts | 307° |
| 2026-05-09 10:59 | 61.89034 | -10.66032 | 16305 ft | 238 kts | 307° |
| 2026-05-09 10:59 | 61.89971 | -10.68930 | 16305 ft | 238 kts | 307° |
| 2026-05-09 10:59 | 61.90903 | -10.71833 | 16313 ft | 238 kts | 307° |
| 2026-05-09 11:00 | 61.91845 | -10.74740 | 16312 ft | 239 kts | 307° |
| 2026-05-09 11:00 | 61.92780 | -10.77645 | 16310 ft | 238 kts | 307° |
| 2026-05-09 11:00 | 61.93704 | -10.80513 | 16309 ft | 238 kts | 307° |
| 2026-05-09 11:00 | 61.94641 | -10.83410 | 16314 ft | 238 kts | 307° |
| 2026-05-09 11:01 | 61.95577 | -10.86319 | 16312 ft | 238 kts | 307° |
| 2026-05-09 11:01 | 61.96514 | -10.89226 | 16308 ft | 238 kts | 307° |
| 2026-05-09 11:01 | 61.97450 | -10.92137 | 16310 ft | 238 kts | 307° |
| 2026-05-09 11:01 | 61.98388 | -10.95048 | 16316 ft | 239 kts | 307° |
| 2026-05-09 11:02 | 61.99323 | -10.97965 | 16312 ft | 239 kts | 306° |
| 2026-05-09 11:02 | 62.00269 | -11.00858 | 16311 ft | 238 kts | 308° |
| 2026-05-09 11:02 | 62.01250 | -11.03648 | 16312 ft | 238 kts | 309° |
| 2026-05-09 11:02 | 62.02266 | -11.06431 | 16319 ft | 238 kts | 310° |
| 2026-05-09 11:03 | 62.03281 | -11.09224 | 16314 ft | 238 kts | 309° |
| 2026-05-09 11:03 | 62.04295 | -11.12020 | 16313 ft | 239 kts | 310° |
| 2026-05-09 11:03 | 62.05305 | -11.14831 | 16311 ft | 239 kts | 309° |
| 2026-05-09 11:03 | 62.06314 | -11.17641 | 16307 ft | 239 kts | 310° |
| 2026-05-09 11:04 | 62.07320 | -11.20454 | 16308 ft | 238 kts | 309° |
| 2026-05-09 11:04 | 62.08327 | -11.23269 | 16307 ft | 238 kts | 310° |
| 2026-05-09 11:04 | 62.09329 | -11.26081 | 16307 ft | 238 kts | 309° |
| 2026-05-09 11:04 | 62.10329 | -11.28900 | 16304 ft | 238 kts | 309° |
| 2026-05-09 11:05 | 62.11315 | -11.31676 | 16310 ft | 238 kts | 310° |
| 2026-05-09 11:05 | 62.12315 | -11.34489 | 16309 ft | 238 kts | 310° |
| 2026-05-09 11:05 | 62.13317 | -11.37299 | 16311 ft | 238 kts | 309° |
| 2026-05-09 11:05 | 62.14321 | -11.40119 | 16309 ft | 238 kts | 309° |
| 2026-05-09 11:06 | 62.15323 | -11.42942 | 16308 ft | 238 kts | 309° |
| 2026-05-09 11:06 | 62.16323 | -11.45768 | 16315 ft | 238 kts | 310° |
| 2026-05-09 11:06 | 62.17323 | -11.48591 | 16312 ft | 238 kts | 310° |
| 2026-05-09 11:06 | 62.18321 | -11.51423 | 16307 ft | 238 kts | 309° |
| 2026-05-09 11:07 | 62.19315 | -11.54253 | 16309 ft | 238 kts | 309° |
| 2026-05-09 11:07 | 62.20301 | -11.57043 | 16315 ft | 238 kts | 310° |
| 2026-05-09 11:07 | 62.21304 | -11.59875 | 16310 ft | 239 kts | 309° |
| 2026-05-09 11:07 | 62.22307 | -11.62712 | 16308 ft | 239 kts | 310° |
| 2026-05-09 11:08 | 62.23307 | -11.65554 | 16308 ft | 239 kts | 309° |
| 2026-05-09 11:08 | 62.24300 | -11.68411 | 16311 ft | 239 kts | 309° |
| 2026-05-09 11:08 | 62.25292 | -11.71267 | 16311 ft | 239 kts | 309° |
| 2026-05-09 11:08 | 62.26293 | -11.74120 | 16311 ft | 239 kts | 309° |
| 2026-05-09 11:09 | 62.27293 | -11.76977 | 16308 ft | 239 kts | 309° |
| 2026-05-09 11:09 | 62.28274 | -11.79805 | 16309 ft | 239 kts | 309° |
| 2026-05-09 11:09 | 62.29268 | -11.82669 | 16308 ft | 239 kts | 309° |
| 2026-05-09 11:09 | 62.30266 | -11.85527 | 16311 ft | 239 kts | 309° |
| 2026-05-09 11:10 | 62.31266 | -11.88388 | 16310 ft | 239 kts | 309° |
| 2026-05-09 11:10 | 62.32264 | -11.91253 | 16314 ft | 239 kts | 309° |
| 2026-05-09 11:10 | 62.33261 | -11.94126 | 16311 ft | 240 kts | 309° |
| 2026-05-09 11:10 | 62.34255 | -11.96997 | 16308 ft | 239 kts | 309° |
| 2026-05-09 11:11 | 62.35247 | -11.99872 | 16311 ft | 239 kts | 309° |
| 2026-05-09 11:11 | 62.36246 | -12.02751 | 16312 ft | 240 kts | 309° |
| 2026-05-09 11:11 | 62.37230 | -12.05593 | 16307 ft | 240 kts | 309° |
| 2026-05-09 11:11 | 62.38227 | -12.08468 | 16306 ft | 240 kts | 309° |
| 2026-05-09 11:12 | 62.39227 | -12.11349 | 16309 ft | 240 kts | 309° |
| 2026-05-09 11:12 | 62.40226 | -12.14234 | 16311 ft | 240 kts | 309° |
| 2026-05-09 11:12 | 62.41223 | -12.17130 | 16311 ft | 240 kts | 309° |
| 2026-05-09 11:12 | 62.42218 | -12.20027 | 16306 ft | 240 kts | 308° |
| 2026-05-09 11:13 | 62.43208 | -12.22929 | 16310 ft | 240 kts | 308° |
| 2026-05-09 11:13 | 62.44193 | -12.25838 | 16309 ft | 240 kts | 309° |
| 2026-05-09 11:13 | 62.45180 | -12.28753 | 16308 ft | 241 kts | 308° |
| 2026-05-09 11:13 | 62.46150 | -12.31636 | 16301 ft | 240 kts | 308° |
| 2026-05-09 11:14 | 62.47135 | -12.34552 | 16306 ft | 240 kts | 308° |
| 2026-05-09 11:14 | 62.48125 | -12.37465 | 16311 ft | 240 kts | 308° |
| 2026-05-09 11:14 | 62.49114 | -12.40382 | 16313 ft | 241 kts | 308° |
| 2026-05-09 11:14 | 62.50100 | -12.43302 | 16308 ft | 240 kts | 309° |
| 2026-05-09 11:15 | 62.51088 | -12.46212 | 16308 ft | 240 kts | 309° |
| 2026-05-09 11:15 | 62.52080 | -12.49121 | 16309 ft | 240 kts | 309° |
| 2026-05-09 11:15 | 62.53067 | -12.52041 | 16312 ft | 240 kts | 308° |
| 2026-05-09 11:15 | 62.54055 | -12.54959 | 16307 ft | 241 kts | 308° |
| 2026-05-09 11:16 | 62.55046 | -12.57889 | 16304 ft | 241 kts | 308° |
| 2026-05-09 11:16 | 62.56019 | -12.60782 | 16309 ft | 241 kts | 308° |
| 2026-05-09 11:16 | 62.57003 | -12.63722 | 16308 ft | 241 kts | 308° |
| 2026-05-09 11:16 | 62.57985 | -12.66661 | 16308 ft | 241 kts | 309° |
| 2026-05-09 11:17 | 62.58972 | -12.69602 | 16311 ft | 241 kts | 309° |
| 2026-05-09 11:17 | 62.59956 | -12.72545 | 16308 ft | 241 kts | 308° |
| 2026-05-09 11:17 | 62.60941 | -12.75483 | 16308 ft | 241 kts | 308° |
| 2026-05-09 11:17 | 62.61931 | -12.78428 | 16303 ft | 241 kts | 308° |
| 2026-05-09 11:18 | 62.62919 | -12.81383 | 16307 ft | 242 kts | 308° |
| 2026-05-09 11:18 | 62.63902 | -12.84346 | 16306 ft | 242 kts | 308° |
| 2026-05-09 11:18 | 62.64885 | -12.87313 | 16308 ft | 242 kts | 308° |
| 2026-05-09 11:18 | 62.65858 | -12.90247 | 16302 ft | 242 kts | 308° |
| 2026-05-09 11:19 | 62.66843 | -12.93213 | 16307 ft | 242 kts | 308° |
| 2026-05-09 11:19 | 62.67832 | -12.96189 | 16307 ft | 242 kts | 308° |
| 2026-05-09 11:19 | 62.68819 | -12.99165 | 16308 ft | 243 kts | 308° |
| 2026-05-09 11:19 | 62.69808 | -13.02143 | 16304 ft | 243 kts | 308° |
| 2026-05-09 11:20 | 62.70792 | -13.05139 | 16308 ft | 243 kts | 308° |
| 2026-05-09 11:20 | 62.71775 | -13.08132 | 16307 ft | 243 kts | 308° |
| 2026-05-09 11:20 | 62.72760 | -13.11123 | 16308 ft | 243 kts | 308° |
| 2026-05-09 11:20 | 62.73745 | -13.14116 | 16303 ft | 243 kts | 308° |
| 2026-05-09 11:21 | 62.74718 | -13.17075 | 16306 ft | 243 kts | 308° |
| 2026-05-09 11:21 | 62.75703 | -13.20076 | 16309 ft | 243 kts | 308° |
| 2026-05-09 11:21 | 62.76687 | -13.23081 | 16308 ft | 244 kts | 308° |
| 2026-05-09 11:21 | 62.77671 | -13.26097 | 16304 ft | 244 kts | 308° |
| 2026-05-09 11:22 | 62.78654 | -13.29106 | 16309 ft | 244 kts | 308° |
| 2026-05-09 11:22 | 62.79645 | -13.32122 | 16308 ft | 244 kts | 307° |
| 2026-05-09 11:22 | 62.80630 | -13.35140 | 16307 ft | 244 kts | 308° |
| 2026-05-09 11:22 | 62.81612 | -13.38163 | 16301 ft | 244 kts | 308° |
| 2026-05-09 11:23 | 62.82594 | -13.41199 | 16307 ft | 244 kts | 308° |
| 2026-05-09 11:23 | 62.83561 | -13.44177 | 16308 ft | 244 kts | 308° |
| 2026-05-09 11:23 | 62.84544 | -13.47205 | 16308 ft | 244 kts | 308° |
| 2026-05-09 11:23 | 62.85528 | -13.50247 | 16303 ft | 244 kts | 307° |
| 2026-05-09 11:24 | 62.86509 | -13.53285 | 16306 ft | 244 kts | 308° |
| 2026-05-09 11:24 | 62.87491 | -13.56327 | 16304 ft | 244 kts | 307° |
| 2026-05-09 11:24 | 62.88472 | -13.59369 | 16306 ft | 245 kts | 308° |
| 2026-05-09 11:24 | 62.89453 | -13.62413 | 16300 ft | 245 kts | 308° |
| 2026-05-09 11:25 | 62.90435 | -13.65469 | 16304 ft | 245 kts | 307° |
| 2026-05-09 11:25 | 62.91416 | -13.68524 | 16305 ft | 245 kts | 307° |
| 2026-05-09 11:25 | 62.92393 | -13.71575 | 16306 ft | 245 kts | 307° |
| 2026-05-09 11:25 | 62.93361 | -13.74592 | 16302 ft | 245 kts | 307° |
| 2026-05-09 11:26 | 62.94340 | -13.77654 | 16305 ft | 245 kts | 307° |
| 2026-05-09 11:26 | 62.95319 | -13.80722 | 16304 ft | 245 kts | 307° |
| 2026-05-09 11:26 | 62.96299 | -13.83792 | 16307 ft | 245 kts | 307° |
| 2026-05-09 11:26 | 62.97279 | -13.86867 | 16302 ft | 245 kts | 307° |
| 2026-05-09 11:27 | 62.98255 | -13.89935 | 16305 ft | 245 kts | 307° |
| 2026-05-09 11:27 | 62.99233 | -13.93018 | 16305 ft | 246 kts | 307° |
| 2026-05-09 11:27 | 63.00213 | -13.96104 | 16306 ft | 246 kts | 307° |
| 2026-05-09 11:27 | 63.01177 | -13.99149 | 16299 ft | 246 kts | 307° |
| 2026-05-09 11:28 | 63.02155 | -14.02235 | 16302 ft | 246 kts | 307° |
| 2026-05-09 11:28 | 63.03131 | -14.05328 | 16303 ft | 246 kts | 307° |
| 2026-05-09 11:28 | 63.04107 | -14.08421 | 16305 ft | 246 kts | 307° |
| 2026-05-09 11:28 | 63.05082 | -14.11512 | 16300 ft | 246 kts | 307° |
| 2026-05-09 11:29 | 63.06055 | -14.14608 | 16301 ft | 246 kts | 307° |
| 2026-05-09 11:29 | 63.07028 | -14.17708 | 16301 ft | 246 kts | 307° |
| 2026-05-09 11:29 | 63.08001 | -14.20805 | 16304 ft | 246 kts | 307° |
| 2026-05-09 11:29 | 63.08972 | -14.23901 | 16306 ft | 245 kts | 307° |
| 2026-05-09 11:30 | 63.09930 | -14.26966 | 16304 ft | 245 kts | 307° |
| 2026-05-09 11:30 | 63.10901 | -14.30065 | 16303 ft | 245 kts | 307° |
| 2026-05-09 11:30 | 63.11868 | -14.33167 | 16306 ft | 245 kts | 307° |
| 2026-05-09 11:30 | 63.12834 | -14.36268 | 16297 ft | 245 kts | 307° |
| 2026-05-09 11:31 | 63.13800 | -14.39372 | 16293 ft | 245 kts | 307° |
| 2026-05-09 11:31 | 63.14763 | -14.42467 | 16300 ft | 244 kts | 307° |
| 2026-05-09 11:31 | 63.15726 | -14.45567 | 16293 ft | 244 kts | 307° |
| 2026-05-09 11:31 | 63.16688 | -14.48670 | 16301 ft | 244 kts | 307° |
| 2026-05-09 11:32 | 63.17633 | -14.51728 | 16294 ft | 244 kts | 307° |
| 2026-05-09 11:32 | 63.18592 | -14.54827 | 16302 ft | 244 kts | 307° |
| 2026-05-09 11:32 | 63.19548 | -14.57927 | 16303 ft | 244 kts | 307° |
| 2026-05-09 11:32 | 63.20504 | -14.61028 | 16292 ft | 243 kts | 307° |
| 2026-05-09 11:33 | 63.21458 | -14.64129 | 16299 ft | 243 kts | 307° |
| 2026-05-09 11:33 | 63.22410 | -14.67225 | 16297 ft | 243 kts | 307° |
| 2026-05-09 11:33 | 63.24314 | -14.73430 | 16291 ft | 243 kts | 307° |
| 2026-05-09 11:34 | 63.25264 | -14.76528 | 16297 ft | 243 kts | 307° |
| 2026-05-09 11:34 | 63.26212 | -14.79629 | 16297 ft | 243 kts | 307° |
| 2026-05-09 11:34 | 63.27146 | -14.82688 | 16298 ft | 243 kts | 307° |
| 2026-05-09 11:34 | 63.28094 | -14.85796 | 16293 ft | 243 kts | 307° |
| 2026-05-09 11:35 | 63.29039 | -14.88900 | 16298 ft | 242 kts | 307° |
| 2026-05-09 11:35 | 63.29983 | -14.92002 | 16296 ft | 242 kts | 307° |
| 2026-05-09 11:35 | 63.30925 | -14.95109 | 16295 ft | 242 kts | 307° |
| 2026-05-09 11:35 | 63.31866 | -14.98205 | 16287 ft | 242 kts | 307° |
| 2026-05-09 11:36 | 63.32807 | -15.01311 | 16293 ft | 242 kts | 307° |
| 2026-05-09 11:36 | 63.33733 | -15.04376 | 16293 ft | 242 kts | 307° |
| 2026-05-09 11:36 | 63.34670 | -15.07474 | 16295 ft | 241 kts | 307° |
| 2026-05-09 11:36 | 63.35606 | -15.10579 | 16291 ft | 241 kts | 307° |
| 2026-05-09 11:37 | 63.36540 | -15.13681 | 16293 ft | 241 kts | 307° |
| 2026-05-09 11:37 | 63.37473 | -15.16782 | 16293 ft | 241 kts | 307° |
| 2026-05-09 11:37 | 63.38407 | -15.19894 | 16294 ft | 241 kts | 307° |
| 2026-05-09 11:37 | 63.39338 | -15.22997 | 16290 ft | 241 kts | 307° |
| 2026-05-09 11:38 | 63.40270 | -15.26100 | 16293 ft | 241 kts | 307° |
| 2026-05-09 11:38 | 63.41200 | -15.29214 | 16292 ft | 241 kts | 306° |
| 2026-05-09 11:38 | 63.42114 | -15.32276 | 16291 ft | 240 kts | 306° |
| 2026-05-09 11:38 | 63.43043 | -15.35384 | 16288 ft | 240 kts | 306° |
| 2026-05-09 11:39 | 63.43967 | -15.38491 | 16292 ft | 240 kts | 306° |
| 2026-05-09 11:39 | 63.44893 | -15.41601 | 16292 ft | 240 kts | 306° |
| 2026-05-09 11:39 | 63.45816 | -15.44708 | 16296 ft | 240 kts | 306° |
| 2026-05-09 11:40 | 63.47659 | -15.50924 | 16290 ft | 239 kts | 306° |
| 2026-05-09 11:40 | 63.48578 | -15.54031 | 16290 ft | 239 kts | 306° |
| 2026-05-09 11:40 | 63.49188 | -15.56090 | 16295 ft | 239 kts | 306° |
| 2026-05-09 11:40 | 63.50401 | -15.60202 | 16287 ft | 239 kts | 306° |
| 2026-05-09 11:41 | 63.51318 | -15.63311 | 16295 ft | 239 kts | 306° |
| 2026-05-09 11:41 | 63.52231 | -15.66416 | 16290 ft | 239 kts | 306° |
| 2026-05-09 11:41 | 63.53145 | -15.69527 | 16293 ft | 239 kts | 306° |
| 2026-05-09 11:41 | 63.54058 | -15.72634 | 16282 ft | 239 kts | 306° |
| 2026-05-09 11:42 | 63.54660 | -15.74691 | 16295 ft | 238 kts | 306° |
| 2026-05-09 11:42 | 63.55570 | -15.77797 | 16295 ft | 238 kts | 306° |
| 2026-05-09 11:42 | 63.56773 | -15.81918 | 16291 ft | 238 kts | 306° |
| 2026-05-09 11:42 | 63.57681 | -15.85020 | 16285 ft | 238 kts | 306° |
| 2026-05-09 11:43 | 63.58587 | -15.88128 | 16287 ft | 238 kts | 306° |
| 2026-05-09 11:43 | 63.59490 | -15.91234 | 16289 ft | 237 kts | 306° |
| 2026-05-09 11:43 | 63.60394 | -15.94342 | 16292 ft | 237 kts | 306° |
| 2026-05-09 11:43 | 63.61296 | -15.97453 | 16284 ft | 237 kts | 306° |
| 2026-05-09 11:44 | 63.61891 | -15.99503 | 16287 ft | 237 kts | 306° |
| 2026-05-09 11:44 | 63.63082 | -16.03620 | 16290 ft | 237 kts | 306° |
| 2026-05-09 11:44 | 63.63979 | -16.06725 | 16291 ft | 237 kts | 306° |
| 2026-05-09 11:44 | 63.64877 | -16.09826 | 16286 ft | 237 kts | 305° |
| 2026-05-09 11:45 | 63.65772 | -16.12934 | 16287 ft | 237 kts | 306° |
| 2026-05-09 11:45 | 63.66360 | -16.14989 | 16288 ft | 236 kts | 306° |
| 2026-05-09 11:45 | 63.67254 | -16.18096 | 16287 ft | 236 kts | 306° |
| 2026-05-09 11:45 | 63.68148 | -16.21203 | 16284 ft | 236 kts | 305° |
| 2026-05-09 11:46 | 63.69040 | -16.24312 | 16286 ft | 236 kts | 306° |
| 2026-05-09 11:46 | 63.69928 | -16.27419 | 16290 ft | 236 kts | 306° |
| 2026-05-09 11:46 | 63.71106 | -16.31531 | 16289 ft | 236 kts | 306° |
| 2026-05-09 11:46 | 63.71704 | -16.33634 | 16287 ft | 235 kts | 305° |
| 2026-05-09 11:47 | 63.72590 | -16.36745 | 16286 ft | 235 kts | 305° |
| 2026-05-09 11:47 | 63.73464 | -16.39813 | 16290 ft | 235 kts | 305° |
| 2026-05-09 11:47 | 63.74348 | -16.42920 | 16291 ft | 235 kts | 305° |
| 2026-05-09 11:47 | 63.75231 | -16.46026 | 16284 ft | 235 kts | 305° |
| 2026-05-09 11:48 | 63.76113 | -16.49133 | 16291 ft | 235 kts | 305° |
| 2026-05-09 11:48 | 63.76993 | -16.52240 | 16292 ft | 235 kts | 305° |
| 2026-05-09 11:48 | 63.77872 | -16.55349 | 16293 ft | 235 kts | 305° |
| 2026-05-09 11:48 | 63.78751 | -16.58458 | 16289 ft | 234 kts | 305° |
| 2026-05-09 11:49 | 63.79623 | -16.61563 | 16294 ft | 234 kts | 305° |
| 2026-05-09 11:49 | 63.80410 | -16.64722 | 16286 ft | 236 kts | 292° |
| 2026-05-09 11:49 | 63.80673 | -16.68400 | 16295 ft | 238 kts | 281° |
| 2026-05-09 11:49 | 63.80791 | -16.72152 | 16287 ft | 239 kts | 279° |
| 2026-05-09 11:50 | 63.80909 | -16.75908 | 16291 ft | 239 kts | 280° |
| 2026-05-09 11:50 | 63.81067 | -16.79662 | 16295 ft | 240 kts | 281° |
| 2026-05-09 11:50 | 63.81259 | -16.83404 | 16297 ft | 240 kts | 282° |
| 2026-05-09 11:50 | 63.81450 | -16.87165 | 16298 ft | 240 kts | 282° |
| 2026-05-09 11:51 | 63.81636 | -16.90873 | 16297 ft | 240 kts | 282° |
| 2026-05-09 11:51 | 63.81823 | -16.94634 | 16299 ft | 240 kts | 282° |
| 2026-05-09 11:51 | 63.82009 | -16.98396 | 16300 ft | 240 kts | 282° |
| 2026-05-09 11:51 | 63.82194 | -17.02156 | 16294 ft | 240 kts | 282° |
| 2026-05-09 11:52 | 63.82379 | -17.05920 | 16298 ft | 240 kts | 282° |
| 2026-05-09 11:52 | 63.82562 | -17.09682 | 16301 ft | 240 kts | 281° |
| 2026-05-09 11:52 | 63.82744 | -17.13440 | 16301 ft | 240 kts | 281° |
| 2026-05-09 11:52 | 63.82926 | -17.17203 | 16295 ft | 240 kts | 282° |
| 2026-05-09 11:53 | 63.83106 | -17.20958 | 16299 ft | 240 kts | 281° |
| 2026-05-09 11:53 | 63.83282 | -17.24661 | 16299 ft | 240 kts | 281° |
| 2026-05-09 11:53 | 63.83461 | -17.28420 | 16303 ft | 240 kts | 281° |
| 2026-05-09 11:53 | 63.83637 | -17.32173 | 16300 ft | 240 kts | 281° |
| 2026-05-09 11:54 | 63.83813 | -17.35924 | 16304 ft | 239 kts | 281° |
| 2026-05-09 11:54 | 63.83987 | -17.39678 | 16307 ft | 239 kts | 281° |
| 2026-05-09 11:54 | 63.84161 | -17.43424 | 16307 ft | 239 kts | 281° |
| 2026-05-09 11:54 | 63.84333 | -17.47179 | 16302 ft | 239 kts | 281° |
| 2026-05-09 11:55 | 63.84503 | -17.50922 | 16305 ft | 239 kts | 281° |
| 2026-05-09 11:56 | 63.85344 | -17.69588 | 16303 ft | 238 kts | 281° |
| 2026-05-09 11:56 | 63.85508 | -17.73330 | 16301 ft | 238 kts | 281° |
| 2026-05-09 11:56 | 63.85672 | -17.77063 | 16299 ft | 238 kts | 281° |
| 2026-05-09 11:57 | 63.85835 | -17.80798 | 16300 ft | 238 kts | 281° |
| 2026-05-09 11:57 | 63.85997 | -17.84480 | 16257 ft | 237 kts | 281° |
| 2026-05-09 11:57 | 63.86155 | -17.88187 | 16276 ft | 236 kts | 281° |
| 2026-05-09 11:57 | 63.86313 | -17.91884 | 16277 ft | 235 kts | 281° |
| 2026-05-09 11:58 | 63.86470 | -17.95580 | 16297 ft | 235 kts | 281° |
| 2026-05-09 11:58 | 63.86625 | -17.99276 | 16284 ft | 235 kts | 281° |
| 2026-05-09 11:58 | 63.86779 | -18.02966 | 16294 ft | 235 kts | 281° |
| 2026-05-09 11:58 | 63.86934 | -18.06652 | 16297 ft | 234 kts | 281° |
| 2026-05-09 11:59 | 63.87086 | -18.10326 | 16294 ft | 233 kts | 281° |
| 2026-05-09 11:59 | 63.87237 | -18.13986 | 16302 ft | 233 kts | 281° |
| 2026-05-09 11:59 | 63.87388 | -18.17645 | 16305 ft | 233 kts | 281° |
| 2026-05-09 11:59 | 63.87534 | -18.21260 | 16309 ft | 233 kts | 281° |
| 2026-05-09 12:00 | 63.87683 | -18.24931 | 16310 ft | 234 kts | 281° |
| 2026-05-09 12:00 | 63.87832 | -18.28599 | 16305 ft | 234 kts | 281° |
| 2026-05-09 12:00 | 63.87978 | -18.32274 | 16303 ft | 234 kts | 281° |
| 2026-05-09 12:00 | 63.88125 | -18.35951 | 16318 ft | 234 kts | 281° |
| 2026-05-09 12:01 | 63.88269 | -18.39646 | 16304 ft | 235 kts | 281° |
| 2026-05-09 12:01 | 63.88416 | -18.43345 | 16302 ft | 235 kts | 281° |
| 2026-05-09 12:01 | 63.88559 | -18.47041 | 16301 ft | 235 kts | 281° |
| 2026-05-09 12:01 | 63.88701 | -18.50726 | 16295 ft | 234 kts | 281° |
| 2026-05-09 12:02 | 63.88842 | -18.54411 | 16303 ft | 234 kts | 281° |
| 2026-05-09 12:02 | 63.88983 | -18.58091 | 16304 ft | 234 kts | 281° |
| 2026-05-09 12:02 | 63.89120 | -18.61717 | 16304 ft | 234 kts | 281° |
| 2026-05-09 12:02 | 63.89259 | -18.65397 | 16294 ft | 233 kts | 281° |
| 2026-05-09 12:03 | 63.89398 | -18.69061 | 16312 ft | 234 kts | 281° |
| 2026-05-09 12:03 | 63.89533 | -18.72744 | 16299 ft | 234 kts | 281° |
| 2026-05-09 12:03 | 63.89668 | -18.76425 | 16295 ft | 233 kts | 280° |
| 2026-05-09 12:03 | 63.89803 | -18.80092 | 16308 ft | 233 kts | 280° |
| 2026-05-09 12:04 | 63.89937 | -18.83762 | 16308 ft | 234 kts | 280° |
| 2026-05-09 12:04 | 63.90071 | -18.87435 | 16305 ft | 234 kts | 281° |
| 2026-05-09 12:04 | 63.90199 | -18.91054 | 16315 ft | 232 kts | 280° |
| 2026-05-09 12:04 | 63.90331 | -18.94715 | 16289 ft | 232 kts | 280° |
| 2026-05-09 12:05 | 63.90459 | -18.98346 | 16311 ft | 230 kts | 280° |
| 2026-05-09 12:05 | 63.90586 | -19.01971 | 16327 ft | 231 kts | 280° |
| 2026-05-09 12:05 | 63.90712 | -19.05622 | 16329 ft | 233 kts | 280° |
| 2026-05-09 12:05 | 63.90840 | -19.09303 | 16322 ft | 235 kts | 280° |
| 2026-05-09 12:06 | 63.90968 | -19.13019 | 16304 ft | 236 kts | 280° |
| 2026-05-09 12:06 | 63.91099 | -19.16730 | 16312 ft | 236 kts | 280° |
| 2026-05-09 12:06 | 63.91223 | -19.20455 | 16307 ft | 236 kts | 280° |
| 2026-05-09 12:06 | 63.91345 | -19.24174 | 16312 ft | 236 kts | 280° |
| 2026-05-09 12:07 | 63.91467 | -19.27846 | 16323 ft | 235 kts | 280° |
| 2026-05-09 12:07 | 63.91591 | -19.31556 | 16320 ft | 236 kts | 280° |
| 2026-05-09 12:07 | 63.91712 | -19.35267 | 16328 ft | 236 kts | 280° |
| 2026-05-09 12:07 | 63.91835 | -19.38991 | 16327 ft | 237 kts | 280° |
| 2026-05-09 12:08 | 63.91959 | -19.42732 | 16303 ft | 237 kts | 280° |
| 2026-05-09 12:08 | 63.92078 | -19.46469 | 16315 ft | 237 kts | 280° |
| 2026-05-09 12:08 | 63.92194 | -19.50193 | 16311 ft | 236 kts | 280° |
| 2026-05-09 12:08 | 63.92311 | -19.53911 | 16319 ft | 236 kts | 280° |
| 2026-05-09 12:09 | 63.92426 | -19.57630 | 16305 ft | 236 kts | 280° |
| 2026-05-09 12:09 | 63.92540 | -19.61286 | 16306 ft | 235 kts | 280° |
| 2026-05-09 12:09 | 63.92652 | -19.64988 | 16325 ft | 235 kts | 280° |
| 2026-05-09 12:10 | 63.92988 | -19.76117 | 16317 ft | 236 kts | 279° |
| 2026-05-09 12:10 | 63.93100 | -19.79841 | 16314 ft | 236 kts | 280° |
| 2026-05-09 12:10 | 63.93210 | -19.83562 | 16316 ft | 236 kts | 279° |
| 2026-05-09 12:11 | 63.93317 | -19.87292 | 16319 ft | 236 kts | 279° |
| 2026-05-09 12:11 | 63.93427 | -19.90972 | 16321 ft | 237 kts | 279° |
| 2026-05-09 12:11 | 63.93534 | -19.94706 | 16316 ft | 237 kts | 279° |
| 2026-05-09 12:11 | 63.93638 | -19.98449 | 16312 ft | 237 kts | 279° |
| 2026-05-09 12:12 | 63.93743 | -20.02188 | 16309 ft | 237 kts | 279° |
| 2026-05-09 12:12 | 63.93848 | -20.05924 | 16311 ft | 236 kts | 279° |
| 2026-05-09 12:12 | 63.93950 | -20.09651 | 16313 ft | 236 kts | 279° |
| 2026-05-09 12:12 | 63.94053 | -20.13372 | 16315 ft | 236 kts | 279° |
| 2026-05-09 12:13 | 63.94153 | -20.17107 | 16315 ft | 237 kts | 279° |
| 2026-05-09 12:13 | 63.94252 | -20.20836 | 16318 ft | 237 kts | 279° |
| 2026-05-09 12:13 | 63.94349 | -20.24526 | 16313 ft | 237 kts | 279° |
| 2026-05-09 12:13 | 63.94446 | -20.28272 | 16312 ft | 237 kts | 279° |
| 2026-05-09 12:14 | 63.94540 | -20.32007 | 16311 ft | 237 kts | 279° |
| 2026-05-09 12:14 | 63.94629 | -20.35749 | 16312 ft | 236 kts | 279° |
| 2026-05-09 12:14 | 63.94732 | -20.39463 | 16318 ft | 235 kts | 280° |
| 2026-05-09 12:14 | 63.94849 | -20.43182 | 16315 ft | 236 kts | 279° |
| 2026-05-09 12:15 | 63.94957 | -20.46900 | 16312 ft | 236 kts | 279° |
| 2026-05-09 12:15 | 63.95057 | -20.50635 | 16215 ft | 236 kts | 279° |
| 2026-05-09 12:15 | 63.95155 | -20.54292 | 15991 ft | 229 kts | 279° |
| 2026-05-09 12:15 | 63.95249 | -20.57869 | 15657 ft | 230 kts | 279° |
| 2026-05-09 12:16 | 63.95344 | -20.61491 | 15334 ft | 230 kts | 279° |
| 2026-05-09 12:16 | 63.95439 | -20.65120 | 15013 ft | 230 kts | 279° |
| 2026-05-09 12:16 | 63.95533 | -20.68730 | 14800 ft | 226 kts | 279° |
| 2026-05-09 12:16 | 63.95622 | -20.72235 | 14702 ft | 218 kts | 279° |
| 2026-05-09 12:17 | 63.95707 | -20.75625 | 14656 ft | 211 kts | 279° |
| 2026-05-09 12:17 | 63.95790 | -20.78898 | 14634 ft | 204 kts | 279° |
| 2026-05-09 12:17 | 63.95869 | -20.82067 | 14621 ft | 198 kts | 279° |
| 2026-05-09 12:17 | 63.95944 | -20.85108 | 14613 ft | 193 kts | 279° |
| 2026-05-09 12:18 | 63.96020 | -20.88172 | 14395 ft | 199 kts | 279° |
| 2026-05-09 12:18 | 63.96102 | -20.91382 | 14076 ft | 207 kts | 279° |
| 2026-05-09 12:18 | 63.96181 | -20.94703 | 13724 ft | 213 kts | 278° |
| 2026-05-09 12:18 | 63.96266 | -20.98107 | 13378 ft | 218 kts | 278° |
| 2026-05-09 12:19 | 63.96344 | -21.01571 | 13011 ft | 220 kts | 277° |
| 2026-05-09 12:19 | 63.96419 | -21.05069 | 12655 ft | 221 kts | 277° |
| 2026-05-09 12:19 | 63.96510 | -21.08573 | 12336 ft | 223 kts | 277° |
| 2026-05-09 12:19 | 63.96600 | -21.12102 | 12005 ft | 224 kts | 277° |
| 2026-05-09 12:20 | 63.96692 | -21.15659 | 11669 ft | 226 kts | 277° |
| 2026-05-09 12:20 | 63.96780 | -21.19182 | 11339 ft | 226 kts | 277° |
| 2026-05-09 12:20 | 63.96866 | -21.22763 | 11011 ft | 227 kts | 276° |
| 2026-05-09 12:20 | 63.96947 | -21.26350 | 10678 ft | 227 kts | 276° |
| 2026-05-09 12:21 | 63.97033 | -21.29930 | 10354 ft | 227 kts | 276° |
| 2026-05-09 12:21 | 63.97124 | -21.33514 | 10006 ft | 227 kts | 276° |
| 2026-05-09 12:21 | 63.97216 | -21.37098 | 9660 ft | 227 kts | 276° |
| 2026-05-09 12:21 | 63.97303 | -21.40683 | 9319 ft | 227 kts | 276° |
| 2026-05-09 12:22 | 63.97380 | -21.44222 | 8962 ft | 227 kts | 275° |
| 2026-05-09 12:22 | 63.97447 | -21.47800 | 8618 ft | 226 kts | 275° |
| 2026-05-09 12:22 | 63.97525 | -21.51374 | 8282 ft | 226 kts | 275° |
| 2026-05-09 12:22 | 63.97600 | -21.54935 | 7940 ft | 226 kts | 275° |
| 2026-05-09 12:23 | 63.97670 | -21.58501 | 7594 ft | 225 kts | 275° |
| 2026-05-09 12:23 | 63.97742 | -21.62047 | 7273 ft | 224 kts | 274° |
| 2026-05-09 12:23 | 63.97811 | -21.65598 | 7011 ft | 224 kts | 274° |
| 2026-05-09 12:23 | 63.97876 | -21.69089 | 6869 ft | 217 kts | 274° |
| 2026-05-09 12:24 | 63.97941 | -21.72494 | 6714 ft | 213 kts | 274° |
| 2026-05-09 12:24 | 63.97995 | -21.75799 | 6572 ft | 211 kts | 274° |
| 2026-05-09 12:24 | 63.98054 | -21.79121 | 6405 ft | 209 kts | 273° |
| 2026-05-09 12:24 | 63.98109 | -21.82419 | 6237 ft | 208 kts | 273° |
| 2026-05-09 12:25 | 63.98165 | -21.85700 | 6070 ft | 207 kts | 273° |
| 2026-05-09 12:25 | 63.98221 | -21.88963 | 5911 ft | 206 kts | 273° |
| 2026-05-09 12:25 | 63.98272 | -21.92211 | 5756 ft | 205 kts | 273° |
| 2026-05-09 12:25 | 63.98328 | -21.95464 | 5597 ft | 205 kts | 273° |
| 2026-05-09 12:26 | 63.98380 | -21.98705 | 5440 ft | 205 kts | 272° |
| 2026-05-09 12:26 | 63.98408 | -22.01945 | 5283 ft | 205 kts | 271° |
| 2026-05-09 12:26 | 63.98422 | -22.05164 | 5045 ft | 208 kts | 271° |
| 2026-05-09 12:26 | 63.98432 | -22.08494 | 4738 ft | 212 kts | 271° |
| 2026-05-09 12:27 | 63.98446 | -22.11867 | 4442 ft | 215 kts | 271° |
| 2026-05-09 12:27 | 63.98458 | -22.15281 | 4153 ft | 216 kts | 271° |
| 2026-05-09 12:27 | 63.98466 | -22.18711 | 3862 ft | 217 kts | 270° |
| 2026-05-09 12:27 | 63.98480 | -22.22141 | 3576 ft | 217 kts | 271° |
| 2026-05-09 12:28 | 63.98484 | -22.25586 | 3383 ft | 218 kts | 271° |
| 2026-05-09 12:28 | 63.98494 | -22.29060 | 3267 ft | 216 kts | 271° |
| 2026-05-09 12:28 | 63.98500 | -22.32247 | 3038 ft | 188 kts | 271° |
| 2026-05-09 12:28 | 63.98512 | -22.35067 | 2691 ft | 170 kts | 270° |
| 2026-05-09 12:29 | 63.98514 | -22.37629 | 2425 ft | 160 kts | 270° |
| 2026-05-09 12:29 | 63.98512 | -22.40183 | 2270 ft | 163 kts | 270° |
| 2026-05-09 12:29 | 63.98505 | -22.42778 | 2121 ft | 165 kts | 270° |
| 2026-05-09 12:29 | 63.98499 | -22.45405 | 1923 ft | 167 kts | 270° |
| 2026-05-09 12:30 | 63.98489 | -22.48060 | 1721 ft | 168 kts | 269° |
| 2026-05-09 12:30 | 63.98478 | -22.50615 | 1652 ft | 155 kts | 271° |
| 2026-05-09 12:30 | 63.98514 | -22.55133 | 1083 ft | 137 kts | 271° |
| 2026-05-09 12:31 | 63.98515 | -22.57225 | 821 ft | 126 kts | 270° |
| 2026-05-09 12:31 | 63.98509 | -22.60884 | 199 ft | 103 kts | 269° |
| 2026-05-09 12:31 | 63.98509 | -22.62319 | 141 ft | 78 kts | 269° |
| 2026-05-09 12:32 | 63.98498 | -22.63336 | 131 ft | 53 kts | 273° |
| 2026-05-09 12:32 | 63.98592 | -22.63990 | 120 ft | 40 kts | 298° |
| 2026-05-09 12:32 | 63.98756 | -22.64174 | 119 ft | 23 kts | 356° |
| 2026-05-09 12:32 | 63.98857 | -22.64084 | 127 ft | 15 kts | 79° |
| 2026-05-09 12:33 | 63.98852 | -22.63795 | 127 ft | 21 kts | 89° |
| 2026-05-09 12:33 | 63.98854 | -22.63448 | 130 ft | 23 kts | 90° |
| 2026-05-09 12:33 | 63.98853 | -22.63070 | 132 ft | 25 kts | 91° |
| 2026-05-09 12:33 | 63.98959 | -22.62841 | 134 ft | 22 kts | 17° |
| 2026-05-09 12:34 | 63.99098 | -22.62748 | 138 ft | 20 kts | 18° |
| 2026-05-09 12:34 | 63.99225 | -22.62693 | 138 ft | 12 kts | 346° |
| 2026-05-09 12:34 | 63.99239 | -22.62795 | 138 ft | 6 kts | 270° |
| 2026-05-09 12:34 | 63.99239 | -22.62875 | 138 ft | 6 kts | 270° |
| 2026-05-09 12:35 | 63.99239 | -22.62929 | 138 ft | 0 kts | 270° |